createdAt,value
2022-12-17T00:01:26.891Z,96878.63
2022-12-17T00:04:11.981Z,96880.44
2022-12-17T00:06:57.192Z,96880.63
2022-12-17T00:09:45.756Z,96870.78
2022-12-17T00:12:33.898Z,96873.47
2022-12-17T00:15:20.337Z,96874.94
2022-12-17T00:18:20.299Z,96879.78
2022-12-17T00:21:10.689Z,96886.72
2022-12-17T00:23:55.548Z,96885.25
2022-12-17T00:26:41.893Z,96887.88
2022-12-17T00:29:27.178Z,96892.81
2022-12-17T00:32:13.826Z,96901.38
2022-12-17T00:34:58.884Z,96901.38
2022-12-17T00:37:44.149Z,96904.81
2022-12-17T00:40:31.820Z,96911.38
2022-12-17T00:43:20.720Z,96908.56
2022-12-17T00:46:05.892Z,96909.03
2022-12-17T00:48:52.938Z,96914.47
2022-12-17T00:51:39.778Z,96920.84
2022-12-17T00:54:25.287Z,96920.41
2022-12-17T00:57:10.703Z,96920.78
2022-12-17T00:59:56.020Z,96915.31
2022-12-17T01:02:41.969Z,96916.31
2022-12-17T01:05:29.405Z,96918.13
2022-12-17T01:08:15.177Z,96919.13
2022-12-17T01:11:00.843Z,96924.06
2022-12-17T01:13:45.985Z,96927.81
2022-12-17T01:16:32.679Z,96936.84
2022-12-17T01:19:18.470Z,96938.31
2022-12-17T01:22:05.116Z,96942.41
2022-12-17T01:24:50.450Z,96944.16
2022-12-17T01:27:35.887Z,96945.88
2022-12-17T01:30:20.988Z,96944.69
2022-12-17T01:33:06.266Z,96943.69
2022-12-17T01:35:51.544Z,96943.53
2022-12-17T01:38:38.361Z,96944.16
2022-12-17T01:41:24.692Z,96945.81
2022-12-17T01:44:09.669Z,96956.19
2022-12-17T01:46:57.534Z,96964.56
2022-12-17T01:49:45.319Z,96971.16
2022-12-17T01:52:32.075Z,96962.31
2022-12-17T01:55:24.136Z,96964.50
2022-12-17T01:58:08.927Z,96966.78
2022-12-17T02:00:54.529Z,96976.00
2022-12-17T02:03:39.721Z,96973.16
2022-12-17T02:06:34.836Z,96977.91
2022-12-17T02:09:29.063Z,96981.19
2022-12-17T02:12:28.333Z,96982.22
2022-12-17T02:15:19.823Z,96986.59
2022-12-17T02:18:08.305Z,96984.84
2022-12-17T02:20:58.022Z,96984.94
2022-12-17T02:23:53.872Z,96988.13
2022-12-17T02:26:56.784Z,96986.84
2022-12-17T02:29:45.273Z,97004.25
2022-12-17T02:32:32.963Z,97010.53
2022-12-17T02:35:29.064Z,97011.38
2022-12-17T02:38:14.644Z,97019.84
2022-12-17T02:41:00.855Z,97024.84
2022-12-17T02:43:51.523Z,97025.03
2022-12-17T02:46:38.371Z,97021.81
2022-12-17T02:49:23.999Z,97019.09
2022-12-17T02:52:21.415Z,97022.28
2022-12-17T02:55:15.333Z,97032.41
2022-12-17T02:58:00.845Z,97033.69
2022-12-17T03:00:47.719Z,97035.38
2022-12-17T03:03:32.876Z,97046.22
2022-12-17T03:06:18.454Z,97036.47
2022-12-17T03:09:03.747Z,97045.03
2022-12-17T03:11:49.086Z,97043.75
2022-12-17T03:14:34.249Z,97052.69
2022-12-17T03:17:20.861Z,97050.56
2022-12-17T03:20:06.191Z,97048.63
2022-12-17T03:22:51.564Z,97057.69
2022-12-17T03:25:36.957Z,97059.78
2022-12-17T03:28:23.010Z,97058.06
2022-12-17T03:31:08.425Z,97063.31
2022-12-17T03:34:00.371Z,97076.00
2022-12-17T03:36:45.656Z,97080.66
2022-12-17T03:39:30.821Z,97082.59
2022-12-17T03:42:16.219Z,97092.22
2022-12-17T03:45:01.505Z,97098.56
2022-12-17T03:47:49.272Z,97080.22
2022-12-17T03:50:35.918Z,97083.94
2022-12-17T03:53:23.097Z,97074.38
2022-12-17T03:56:08.451Z,97070.50
2022-12-17T03:58:53.713Z,97081.28
2022-12-17T04:01:39.001Z,97083.41
2022-12-17T04:04:24.119Z,97084.53
2022-12-17T04:07:10.605Z,97087.66
2022-12-17T04:09:56.067Z,97079.25
2022-12-17T04:12:41.332Z,97083.22
2022-12-17T04:15:27.085Z,97091.31
2022-12-17T04:18:12.178Z,97088.69
2022-12-17T04:20:57.372Z,97098.53
2022-12-17T04:23:43.999Z,97092.47
2022-12-17T04:26:29.182Z,97102.00
2022-12-17T04:29:14.314Z,97096.84
2022-12-17T04:31:59.765Z,97103.63
2022-12-17T04:34:45.071Z,97105.19
2022-12-17T04:37:38.802Z,97104.03
2022-12-17T04:40:28.108Z,97101.88
2022-12-17T04:43:13.471Z,97109.69
2022-12-17T04:45:59.011Z,97112.63
2022-12-17T04:48:44.284Z,97112.13
2022-12-17T04:51:29.636Z,97122.50
2022-12-17T04:54:14.918Z,97118.28
2022-12-17T04:57:01.492Z,97122.81
2022-12-17T04:59:46.769Z,97129.72
2022-12-17T05:02:32.105Z,97132.44
2022-12-17T05:05:17.213Z,97134.25
2022-12-17T05:08:07.847Z,97130.19
2022-12-17T05:10:53.165Z,97143.09
2022-12-17T05:13:39.858Z,97141.75
2022-12-17T05:16:25.081Z,97151.34
2022-12-17T05:19:10.453Z,97155.13
2022-12-17T05:21:55.692Z,97153.69
2022-12-17T05:24:41.021Z,97153.41
2022-12-17T05:27:26.259Z,97153.78
2022-12-17T05:30:12.627Z,97153.19
2022-12-17T05:32:57.906Z,97163.38
2022-12-17T05:35:43.095Z,97160.97
2022-12-17T05:38:29.325Z,97165.09
2022-12-17T05:41:15.737Z,97170.13
2022-12-17T05:44:00.903Z,97178.88
2022-12-17T05:46:47.991Z,97181.75
2022-12-17T05:49:33.498Z,97189.63
2022-12-17T05:52:18.821Z,97185.66
2022-12-17T05:55:04.283Z,97190.13
2022-12-17T05:57:56.027Z,97191.03
2022-12-17T06:00:41.470Z,97205.28
2022-12-17T06:03:28.469Z,97209.44
2022-12-17T06:06:14.777Z,97210.97
2022-12-17T06:09:02.262Z,97212.47
2022-12-17T06:11:47.581Z,97211.28
2022-12-17T06:14:32.873Z,97214.34
2022-12-17T06:17:18.076Z,97216.13
2022-12-17T06:20:04.774Z,97224.00
2022-12-17T06:22:50.188Z,97226.69
2022-12-17T06:25:46.730Z,97220.84
2022-12-17T06:28:31.604Z,97224.31
2022-12-17T06:31:16.965Z,97231.19
2022-12-17T06:34:02.291Z,97223.56
2022-12-17T06:36:48.753Z,97226.22
2022-12-17T06:39:34.136Z,97234.09
2022-12-17T06:42:19.352Z,97235.13
2022-12-17T06:45:04.654Z,97239.56
2022-12-17T06:47:50.059Z,97245.50
2022-12-17T06:50:35.398Z,97245.66
2022-12-17T06:53:24.226Z,97253.78
2022-12-17T06:56:09.516Z,97258.34
2022-12-17T06:58:54.940Z,97266.34
2022-12-17T07:01:40.572Z,97267.41
2022-12-17T07:04:25.997Z,97259.84
2022-12-17T07:07:11.539Z,97270.16
2022-12-17T07:09:58.122Z,97283.69
2022-12-17T07:12:43.503Z,97286.69
2022-12-17T07:15:29.307Z,97283.78
2022-12-17T07:18:15.065Z,97285.41
2022-12-17T07:21:00.539Z,97284.59
2022-12-17T07:23:45.817Z,97287.84
2022-12-17T07:26:32.426Z,97291.00
2022-12-17T07:29:23.239Z,97293.53
2022-12-17T07:32:08.712Z,97297.88
2022-12-17T07:34:53.832Z,97287.63
2022-12-17T07:37:39.255Z,97295.94
2022-12-17T07:40:25.479Z,97302.69
2022-12-17T07:43:12.529Z,97311.06
2022-12-17T07:45:58.182Z,97312.59
2022-12-17T07:48:43.451Z,97319.38
2022-12-17T07:51:28.806Z,97305.34
2022-12-17T07:54:14.151Z,97314.31
2022-12-17T07:56:59.271Z,97318.88
2022-12-17T07:59:45.273Z,97323.47
2022-12-17T08:02:30.617Z,97328.91
2022-12-17T08:05:30.269Z,97331.75
2022-12-17T08:08:15.018Z,97342.13
2022-12-17T08:11:00.074Z,97348.38
2022-12-17T08:13:45.351Z,97346.09
2022-12-17T08:16:32.378Z,97358.03
2022-12-17T08:19:17.840Z,97352.13
2022-12-17T08:22:03.028Z,97358.97
2022-12-17T08:24:48.280Z,97364.84
2022-12-17T08:27:33.579Z,97357.97
2022-12-17T08:30:18.880Z,97368.97
2022-12-17T08:33:05.483Z,97376.53
2022-12-17T08:35:55.980Z,97381.63
2022-12-17T08:38:41.300Z,97383.19
2022-12-17T08:41:26.361Z,97383.06
2022-12-17T08:44:11.695Z,97388.16
2022-12-17T08:46:57.325Z,97392.97
2022-12-17T08:49:49.018Z,97397.06
2022-12-17T08:52:34.165Z,97397.94
2022-12-17T08:55:19.453Z,97394.56
2022-12-17T08:58:11.254Z,97391.16
2022-12-17T09:00:57.242Z,97393.56
2022-12-17T09:03:42.960Z,97387.50
2022-12-17T09:06:33.435Z,97392.41
2022-12-17T09:09:22.818Z,97392.97
2022-12-17T09:12:07.895Z,97394.38
2022-12-17T09:14:53.205Z,97399.22
2022-12-17T09:17:38.580Z,97394.59
2022-12-17T09:20:29.117Z,97401.78
2022-12-17T09:23:24.563Z,97411.53
2022-12-17T09:26:12.242Z,97409.25
2022-12-17T09:28:57.276Z,97419.75
2022-12-17T09:31:42.802Z,97412.63
2022-12-17T09:34:42.587Z,97415.56
2022-12-17T09:37:27.863Z,97412.69
2022-12-17T09:40:14.454Z,97423.47
2022-12-17T09:43:08.662Z,97427.34
2022-12-17T09:46:03.486Z,97425.03
2022-12-17T09:48:55.076Z,97435.44
2022-12-17T09:51:42.304Z,97438.22
2022-12-17T09:54:38.408Z,97432.00
2022-12-17T09:57:25.528Z,97426.75
2022-12-17T10:00:10.914Z,97422.28
2022-12-17T10:02:57.393Z,97423.03
2022-12-17T10:05:51.025Z,97439.97
2022-12-17T10:08:39.474Z,97436.38
2022-12-17T10:11:34.535Z,97428.22
2022-12-17T10:14:23.110Z,97432.94
2022-12-17T10:17:12.204Z,97431.44
2022-12-17T10:20:00.593Z,97433.38
2022-12-17T10:22:45.962Z,97437.06
2022-12-17T10:25:34.200Z,97424.63
2022-12-17T10:28:20.943Z,97427.75
2022-12-17T10:31:08.158Z,97425.81
2022-12-17T10:33:56.811Z,97421.88
2022-12-17T10:36:43.602Z,97422.06
2022-12-17T10:39:35.440Z,97415.50
2022-12-17T10:42:21.280Z,97416.66
2022-12-17T10:45:07.788Z,97420.28
2022-12-17T10:47:54.355Z,97430.09
2022-12-17T10:50:41.637Z,97430.50
2022-12-17T10:53:37.056Z,97425.06
2022-12-17T10:56:29.659Z,97427.44
2022-12-17T10:59:14.652Z,97422.19
2022-12-17T11:02:01.091Z,97429.34
2022-12-17T11:04:49.897Z,97436.91
2022-12-17T11:07:41.739Z,97430.75
2022-12-17T11:10:34.587Z,97433.28
2022-12-17T11:13:23.941Z,97434.13
2022-12-17T11:16:12.356Z,97436.72
2022-12-17T11:19:03.412Z,97442.06
2022-12-17T11:21:54.613Z,97433.66
2022-12-17T11:24:42.990Z,97448.28
2022-12-17T11:27:34.019Z,97442.44
2022-12-17T11:30:19.256Z,97434.19
2022-12-17T11:33:19.324Z,97432.72
2022-12-17T11:36:12.203Z,97431.25
2022-12-17T11:39:07.982Z,97425.84
2022-12-17T11:42:11.234Z,97424.63
2022-12-17T11:45:04.187Z,97417.09
2022-12-17T11:47:59.555Z,97420.94
2022-12-17T11:50:50.460Z,97426.59
2022-12-17T11:53:55.560Z,97429.69
2022-12-17T11:56:46.734Z,97425.63
2022-12-17T11:59:40.938Z,97436.03
2022-12-17T12:02:40.872Z,97429.41
2022-12-17T12:05:37.744Z,97438.91
2022-12-17T12:08:30.042Z,97440.13
2022-12-17T12:11:29.765Z,97447.91
2022-12-17T12:14:27.637Z,97453.28
2022-12-17T12:17:21.659Z,97451.47
2022-12-17T12:20:14.166Z,97446.38
2022-12-17T12:23:12.547Z,97445.84
2022-12-17T12:26:20.335Z,97446.72
2022-12-17T12:29:12.186Z,97445.56
2022-12-17T12:32:03.602Z,97446.94
2022-12-17T12:34:52.964Z,97451.16
2022-12-17T12:37:39.369Z,97452.06
2022-12-17T12:40:35.376Z,97451.00
2022-12-17T12:43:30.581Z,97454.25
2022-12-17T12:46:21.383Z,97451.72
2022-12-17T12:49:15.906Z,97447.53
2022-12-17T12:52:01.712Z,97455.78
2022-12-17T12:54:49.566Z,97446.66
2022-12-17T12:57:49.753Z,97444.97
2022-12-17T13:00:53.060Z,97447.38
2022-12-17T13:03:44.703Z,97445.34
2022-12-17T13:06:15.975Z,97450.19
2022-12-17T13:08:43.547Z,97444.53
2022-12-17T13:11:29.241Z,97440.66
2022-12-17T13:14:07.320Z,97445.59
2022-12-17T13:16:43.527Z,97440.78
2022-12-17T13:19:21.316Z,97439.97
2022-12-17T13:21:50.389Z,97441.63
2022-12-17T13:24:28.228Z,97447.69
2022-12-17T13:26:55.781Z,97445.09
2022-12-17T13:29:29.602Z,97449.44
2022-12-17T13:32:06.083Z,97443.66
2022-12-17T13:34:44.992Z,97448.22
2022-12-17T13:37:23.415Z,97450.06
2022-12-17T13:39:59.969Z,97451.78
2022-12-17T13:42:31.069Z,97452.97
2022-12-17T13:44:59.978Z,97451.72
2022-12-17T13:47:30.571Z,97457.88
2022-12-17T13:50:32.817Z,97463.13
2022-12-17T13:52:50.079Z,97463.34
2022-12-17T13:55:21.061Z,97460.38
2022-12-17T13:57:49.959Z,97472.06
2022-12-17T14:00:24.120Z,97474.53
2022-12-17T14:02:52.559Z,97476.16
2022-12-17T14:05:26.943Z,97480.44
2022-12-17T14:07:59.356Z,97479.41
2022-12-17T14:10:27.152Z,97478.25
2022-12-17T14:13:04.022Z,97478.75
2022-12-17T14:15:31.992Z,97476.47
2022-12-17T14:18:00.535Z,97480.50
2022-12-17T14:20:31.786Z,97484.50
2022-12-17T14:23:04.248Z,97484.31
2022-12-17T14:25:36.329Z,97484.13
2022-12-17T14:28:06.188Z,97479.81
2022-12-17T14:30:46.172Z,97488.41
2022-12-17T14:33:29.521Z,97489.44
2022-12-17T14:35:58.652Z,97495.50
2022-12-17T14:38:48.645Z,97502.50
2022-12-17T14:41:34.089Z,97495.16
2022-12-17T14:44:03.496Z,97501.63
2022-12-17T14:46:32.921Z,97497.97
2022-12-17T14:49:02.612Z,97505.72
2022-12-17T14:51:33.398Z,97503.81
2022-12-17T14:54:19.537Z,97507.06
2022-12-17T14:56:49.233Z,97501.66
2022-12-17T14:59:31.686Z,97494.59
2022-12-17T15:02:02.797Z,97507.25
2022-12-17T15:04:32.170Z,97502.84
2022-12-17T15:07:00.334Z,97506.25
2022-12-17T15:09:29.235Z,97512.00
2022-12-17T15:11:57.240Z,97504.75
2022-12-17T15:14:24.755Z,97505.13
2022-12-17T15:16:52.718Z,97508.03
2022-12-17T15:19:20.324Z,97502.63
2022-12-17T15:21:47.877Z,97513.38
2022-12-17T15:24:20.351Z,97512.41
2022-12-17T15:26:49.910Z,97518.06
2022-12-17T15:29:17.502Z,97506.34
2022-12-17T15:31:45.127Z,97510.56
2022-12-17T15:34:13.406Z,97503.78
2022-12-17T15:36:40.942Z,97504.72
2022-12-17T15:39:09.418Z,97501.41
2022-12-17T15:41:54.912Z,97505.59
2022-12-17T15:44:23.757Z,97502.22
2022-12-17T15:46:51.398Z,97513.63
2022-12-17T15:49:18.900Z,97509.69
2022-12-17T15:51:46.419Z,97511.31
2022-12-17T15:54:13.923Z,97512.50
2022-12-17T15:56:41.431Z,97517.13
2022-12-17T15:59:08.954Z,97507.22
2022-12-17T16:01:38.056Z,97515.22
2022-12-17T16:04:09.185Z,97525.53
2022-12-17T16:06:41.420Z,97528.75
2022-12-17T16:09:08.910Z,97528.69
2022-12-17T16:11:36.506Z,97534.63
2022-12-17T16:14:04.070Z,97545.66
2022-12-17T16:16:31.770Z,97544.94
2022-12-17T16:19:01.936Z,97552.03
2022-12-17T16:21:29.964Z,97561.53
2022-12-17T16:23:57.511Z,97558.72
2022-12-17T16:26:27.269Z,97558.53
2022-12-17T16:28:54.797Z,97559.28
2022-12-17T16:31:22.336Z,97562.84
2022-12-17T16:33:49.891Z,97566.31
2022-12-17T16:36:21.384Z,97574.06
2022-12-17T16:38:51.243Z,97575.06
2022-12-17T16:41:19.848Z,97573.38
2022-12-17T16:43:47.883Z,97580.31
2022-12-17T16:46:27.206Z,97573.88
2022-12-17T16:48:55.991Z,97574.88
2022-12-17T16:51:29.272Z,97579.41
2022-12-17T16:53:57.365Z,97579.66
2022-12-17T16:56:27.232Z,97582.44
2022-12-17T16:58:55.385Z,97584.59
2022-12-17T17:01:25.018Z,97588.69
2022-12-17T17:03:52.751Z,97581.38
2022-12-17T17:06:22.066Z,97589.28
2022-12-17T17:08:51.377Z,97587.84
2022-12-17T17:11:21.426Z,97597.44
2022-12-17T17:13:49.935Z,97591.56
2022-12-17T17:16:19.945Z,97596.59
2022-12-17T17:18:47.858Z,97602.44
2022-12-17T17:21:26.295Z,97594.78
2022-12-17T17:23:57.746Z,97593.88
2022-12-17T17:26:25.506Z,97597.50
2022-12-17T17:28:53.103Z,97600.97
2022-12-17T17:31:21.819Z,97604.41
2022-12-17T17:33:51.190Z,97600.28
2022-12-17T17:36:20.800Z,97598.53
2022-12-17T17:38:49.940Z,97606.22
2022-12-17T17:41:20.344Z,97607.13
2022-12-17T17:43:48.423Z,97597.97
2022-12-17T17:46:17.797Z,97604.13
2022-12-17T17:48:47.637Z,97597.50
2022-12-17T17:51:23.259Z,97605.34
2022-12-17T17:53:57.343Z,97601.28
2022-12-17T17:56:29.391Z,97613.34
2022-12-17T17:58:59.894Z,97609.06
2022-12-17T18:01:29.762Z,97610.97
2022-12-17T18:03:59.670Z,97616.94
2022-12-17T18:06:27.748Z,97616.13
2022-12-17T18:08:57.071Z,97620.41
2022-12-17T18:11:28.570Z,97619.72
2022-12-17T18:13:56.786Z,97619.72
2022-12-17T18:16:26.487Z,97616.53
2022-12-17T18:18:55.919Z,97614.91
2022-12-17T18:21:23.794Z,97622.78
2022-12-17T18:23:56.426Z,97617.97
2022-12-17T18:26:25.872Z,97618.94
2022-12-17T18:28:53.423Z,97624.22
2022-12-17T18:31:23.244Z,97624.34
2022-12-17T18:33:53.757Z,97633.66
2022-12-17T18:36:23.287Z,97631.88
2022-12-17T18:38:56.583Z,97636.91
2022-12-17T18:41:43.979Z,97630.09
2022-12-17T18:44:12.791Z,97634.28
2022-12-17T18:46:40.474Z,97636.75
2022-12-17T18:49:10.563Z,97631.88
2022-12-17T18:51:39.785Z,97636.22
2022-12-17T18:54:09.054Z,97634.72
2022-12-17T18:57:00.596Z,97645.97
2022-12-17T18:59:29.281Z,97646.94
2022-12-17T19:01:57.568Z,97645.34
2022-12-17T19:04:26.575Z,97648.88
2022-12-17T19:06:55.074Z,97650.53
2022-12-17T19:09:25.464Z,97650.47
2022-12-17T19:11:55.600Z,97648.50
2022-12-17T19:14:23.667Z,97648.38
2022-12-17T19:16:52.126Z,97649.88
2022-12-17T19:19:21.241Z,97655.81
2022-12-17T19:21:49.652Z,97657.53
2022-12-17T19:24:19.586Z,97658.50
2022-12-17T19:26:47.130Z,97663.53
2022-12-17T19:29:17.404Z,97658.28
2022-12-17T19:31:45.640Z,97666.69
2022-12-17T19:34:16.091Z,97664.25
2022-12-17T19:36:44.237Z,97660.16
2022-12-17T19:39:13.641Z,97661.16
2022-12-17T19:41:41.381Z,97662.03
2022-12-17T19:44:12.563Z,97667.69
2022-12-17T19:46:42.256Z,97671.69
2022-12-17T19:49:12.173Z,97667.25
2022-12-17T19:51:42.994Z,97667.88
2022-12-17T19:54:12.132Z,97663.53
2022-12-17T19:56:39.775Z,97669.28
2022-12-17T19:59:10.543Z,97668.25
2022-12-17T20:01:42.695Z,97666.44
2022-12-17T20:04:11.675Z,97664.59
2022-12-17T20:06:39.203Z,97670.53
2022-12-17T20:09:07.675Z,97673.13
2022-12-17T20:11:36.066Z,97674.13
2022-12-17T20:14:07.475Z,97666.63
2022-12-17T20:16:36.708Z,97674.50
2022-12-17T20:19:07.649Z,97683.41
2022-12-17T20:21:35.655Z,97680.22
2022-12-17T20:24:03.188Z,97675.41
2022-12-17T20:26:30.922Z,97683.16
2022-12-17T20:28:59.051Z,97679.91
2022-12-17T20:31:26.899Z,97679.13
2022-12-17T20:33:54.541Z,97676.75
2022-12-17T20:36:24.392Z,97677.78
2022-12-17T20:38:51.937Z,97674.53
2022-12-17T20:41:21.327Z,97677.34
2022-12-17T20:43:49.622Z,97678.47
2022-12-17T20:46:18.925Z,97686.25
2022-12-17T20:48:47.455Z,97680.53
2022-12-17T20:51:17.808Z,97678.25
2022-12-17T20:53:47.789Z,97676.09
2022-12-17T20:56:17.374Z,97671.28
2022-12-17T20:58:45.540Z,97675.06
2022-12-17T21:01:15.632Z,97676.94
2022-12-17T21:03:43.850Z,97678.78
2022-12-17T21:06:13.516Z,97677.19
2022-12-17T21:08:47.892Z,97673.06
2022-12-17T21:11:19.695Z,97674.00
2022-12-17T21:13:47.636Z,97678.28
2022-12-17T21:16:18.050Z,97682.41
2022-12-17T21:18:46.138Z,97679.03
2022-12-17T21:21:20.656Z,97679.09
2022-12-17T21:23:49.273Z,97681.78
2022-12-17T21:26:19.820Z,97685.28
2022-12-17T21:28:48.858Z,97697.13
2022-12-17T21:31:18.787Z,97704.00
2022-12-17T21:33:46.946Z,97704.88
2022-12-17T21:36:15.687Z,97703.97
2022-12-17T21:38:43.284Z,97706.72
2022-12-17T21:41:12.599Z,97707.66
2022-12-17T21:43:41.900Z,97702.69
2022-12-17T21:46:12.107Z,97702.13
2022-12-17T21:48:42.764Z,97706.59
2022-12-17T21:51:13.037Z,97698.38
2022-12-17T21:53:43.434Z,97706.16
2022-12-17T21:56:14.008Z,97703.66
2022-12-17T21:58:44.444Z,97706.41
2022-12-17T22:01:18.219Z,97709.03
2022-12-17T22:03:47.213Z,97705.00
2022-12-17T22:06:20.816Z,97701.72
2022-12-17T22:08:49.920Z,97710.44
2022-12-17T22:11:21.696Z,97710.56
2022-12-17T22:14:15.559Z,97723.34
2022-12-17T22:16:49.876Z,97718.44
2022-12-17T22:19:21.803Z,97708.59
2022-12-17T22:21:57.432Z,97692.00
2022-12-17T22:24:26.357Z,97684.66
2022-12-17T22:27:00.008Z,97690.00
2022-12-17T22:29:43.413Z,97690.00
2022-12-17T22:32:28.996Z,97703.47
2022-12-17T22:35:52.748Z,97705.16
2022-12-17T22:42:12.070Z,97709.28
2022-12-17T22:44:29.476Z,97716.06
2022-12-17T22:44:40.758Z,97701.59
2022-12-17T22:46:18.994Z,97711.84
2022-12-17T22:48:46.986Z,97714.38
2022-12-17T22:51:22.605Z,97721.28
2022-12-17T22:54:02.611Z,97715.47
2022-12-17T22:56:49.452Z,97710.38
2022-12-17T22:59:19.327Z,97709.50
2022-12-17T23:01:48.340Z,97701.00
2022-12-17T23:04:17.268Z,97707.81
2022-12-17T23:06:46.392Z,97705.28
2022-12-17T23:09:14.890Z,97705.38
2022-12-17T23:11:42.457Z,97706.19
2022-12-17T23:14:10.026Z,97696.03
2022-12-17T23:16:38.892Z,97690.88
2022-12-17T23:19:08.876Z,97695.16
2022-12-17T23:21:36.582Z,97692.56
2022-12-17T23:24:04.949Z,97685.84
2022-12-17T23:26:34.638Z,97680.75
2022-12-17T23:29:05.630Z,97678.09
2022-12-17T23:31:35.476Z,97691.47
2022-12-17T23:34:03.309Z,97694.72
2022-12-17T23:36:32.182Z,97709.88
2022-12-17T23:39:00.571Z,97716.50
2022-12-17T23:41:30.839Z,97697.81
2022-12-17T23:44:00.197Z,97703.06
2022-12-17T23:46:29.963Z,97704.91
2022-12-17T23:48:57.905Z,97707.69
2022-12-17T23:51:26.183Z,97716.38
2022-12-17T23:53:55.102Z,97713.31
2022-12-17T23:56:24.215Z,97712.66
2022-12-17T23:58:54.002Z,97724.78
